Time;durP1;ratioP1;P1;durP2;ratioP2;P2;SDS_P1;SDS_P2;PMS_P1;PMS_P2;Temp;Humidity;BMP_temperature;BMP_pressure;BME280_temperature;BME280_humidity;BME280_pressure;Samples;Min_cycle;Max_cycle;Signal;HPM_P1;HPM_P2
2023/01/31 00:01:07;;;;;;;18.77;3.70;;;3.90;99.90;;;;;;5094098;28;20476;-64
2023/01/31 00:03:34;;;;;;;12.70;2.80;;;3.90;99.90;;;;;;5093954;28;20420;-63
2023/01/31 00:06:17;;;;;;;13.73;3.80;;;3.90;99.90;;;;;;5093938;28;20398;-64
2023/01/31 00:08:47;;;;;;;14.18;3.70;;;4.00;99.90;;;;;;5091979;28;20417;-63
2023/01/31 00:11:15;;;;;;;17.45;3.88;;;3.90;99.90;;;;;;5093322;28;20471;-63
2023/01/31 00:13:44;;;;;;;18.47;3.70;;;3.90;99.90;;;;;;5093423;28;20417;-64
2023/01/31 00:16:12;;;;;;;16.60;4.20;;;3.90;99.90;;;;;;5094341;28;20928;-64
2023/01/31 00:18:39;;;;;;;13.65;3.13;;;3.90;99.90;;;;;;5093481;28;20410;-62
2023/01/31 00:21:11;;;;;;;14.65;4.10;;;3.90;99.90;;;;;;5093645;28;20418;-63
2023/01/31 00:23:39;;;;;;;15.48;3.92;;;3.90;99.90;;;;;;5092872;28;20489;-64
2023/01/31 00:26:13;;;;;;;14.93;3.70;;;4.00;99.90;;;;;;5094510;28;20855;-66
2023/01/31 00:28:40;;;;;;;13.68;3.50;;;4.00;99.90;;;;;;5097574;28;20873;-64
2023/01/31 00:31:08;;;;;;;15.30;3.30;;;4.00;99.90;;;;;;5098392;28;20407;-62
2023/01/31 00:33:36;;;;;;;13.23;3.20;;;4.10;99.90;;;;;;5097837;28;20417;-64
2023/01/31 00:36:04;;;;;;;16.52;3.28;;;4.10;99.90;;;;;;5097616;28;20431;-63
2023/01/31 00:38:31;;;;;;;10.17;2.70;;;4.20;99.90;;;;;;5096957;28;21005;-64
2023/01/31 00:40:58;;;;;;;9.95;2.60;;;4.20;99.90;;;;;;5097645;28;20409;-63
2023/01/31 00:43:26;;;;;;;9.55;2.70;;;4.20;99.90;;;;;;5096784;28;20903;-63
2023/01/31 00:45:54;;;;;;;8.70;2.30;;;4.20;99.90;;;;;;5097744;28;20508;-62
2023/01/31 00:48:21;;;;;;;7.70;1.90;;;4.30;99.90;;;;;;5098855;28;20478;-64
2023/01/31 00:50:48;;;;;;;12.90;2.20;;;4.30;99.90;;;;;;5101031;28;20450;-63
2023/01/31 00:53:17;;;;;;;8.93;2.13;;;4.30;99.90;;;;;;5099731;28;20409;-63
2023/01/31 00:55:44;;;;;;;10.20;2.53;;;4.30;99.90;;;;;;5103267;28;20422;-63
2023/01/31 00:58:11;;;;;;;9.90;2.90;;;4.30;99.90;;;;;;5101743;28;20423;-64
2023/01/31 01:00:39;;;;;;;8.75;2.30;;;4.30;99.90;;;;;;5102721;28;20418;-64
2023/01/31 01:03:06;;;;;;;10.13;2.50;;;4.20;99.90;;;;;;5101914;28;20770;-64
2023/01/31 01:05:32;;;;;;;13.02;3.10;;;4.20;99.90;;;;;;5100072;28;20401;-64
2023/01/31 01:07:59;;;;;;;10.30;2.80;;;4.10;99.90;;;;;;5101536;28;20881;-64
2023/01/31 01:10:26;;;;;;;12.85;2.88;;;4.10;99.90;;;;;;5104411;28;20596;-63
2023/01/31 01:12:53;;;;;;;10.53;2.90;;;4.10;99.90;;;;;;5107144;28;20426;-64
2023/01/31 01:15:19;;;;;;;12.68;3.00;;;4.10;99.90;;;;;;5108991;28;20436;-63
2023/01/31 01:17:49;;;;;;;12.30;2.85;;;4.10;99.90;;;;;;5106596;28;20418;-63
2023/01/31 01:20:17;;;;;;;11.00;3.10;;;4.00;99.90;;;;;;5100865;28;20986;-64
2023/01/31 01:22:43;;;;;;;16.43;3.17;;;4.00;99.90;;;;;;5105747;28;20496;-63
2023/01/31 01:25:10;;;;;;;15.27;3.50;;;3.90;99.90;;;;;;5108576;28;20433;-64
2023/01/31 01:27:37;;;;;;;13.57;3.20;;;3.90;99.90;;;;;;5108724;28;20988;-64
2023/01/31 01:30:06;;;;;;;12.07;2.90;;;3.90;99.90;;;;;;5108815;28;20420;-64
2023/01/31 01:32:33;;;;;;;12.10;3.63;;;3.90;99.90;;;;;;5103643;28;20804;-63
2023/01/31 01:35:02;;;;;;;13.98;3.10;;;3.90;99.90;;;;;;5096942;28;20961;-63
2023/01/31 01:37:29;;;;;;;15.98;3.92;;;3.90;99.90;;;;;;5097369;28;20437;-63
2023/01/31 01:39:56;;;;;;;18.17;3.50;;;3.90;99.90;;;;;;5098405;28;20792;-63
2023/01/31 01:42:25;;;;;;;14.40;3.45;;;3.90;99.90;;;;;;5099646;28;20416;-63
2023/01/31 01:44:54;;;;;;;12.75;3.53;;;3.90;99.90;;;;;;5100382;28;20484;-63
2023/01/31 01:47:29;;;;;;;13.90;4.07;;;3.90;99.90;;;;;;5099382;28;20506;-63
2023/01/31 01:50:00;;;;;;;14.50;3.92;;;3.90;99.90;;;;;;5098032;28;20505;-63
2023/01/31 01:52:29;;;;;;;13.97;3.33;;;3.80;99.90;;;;;;5097811;28;20420;-63
2023/01/31 01:55:00;;;;;;;16.75;4.40;;;3.90;99.90;;;;;;5099497;28;20421;-63
2023/01/31 01:57:32;;;;;;;15.57;3.30;;;3.80;99.90;;;;;;5101550;28;20421;-63
2023/01/31 02:00:08;;;;;;;14.05;3.40;;;3.80;99.90;;;;;;5103392;28;20422;-63
2023/01/31 02:02:35;;;;;;;11.38;3.17;;;3.90;99.90;;;;;;5106293;28;20414;-63
2023/01/31 02:05:03;;;;;;;11.32;2.90;;;3.80;99.90;;;;;;5099697;28;20418;-64
2023/01/31 02:07:31;;;;;;;15.27;3.50;;;3.80;99.90;;;;;;5100437;28;20434;-63
2023/01/31 02:10:03;;;;;;;22.33;4.00;;;3.80;99.90;;;;;;5100995;28;20406;-63
2023/01/31 02:12:32;;;;;;;13.73;3.80;;;3.80;99.90;;;;;;5100165;28;20445;-64
2023/01/31 02:14:59;;;;;;;14.30;3.33;;;3.90;99.90;;;;;;5099432;28;20485;-63
2023/01/31 02:17:26;;;;;;;14.88;2.90;;;3.90;99.90;;;;;;5098185;28;20789;-65
2023/01/31 02:20:03;;;;;;;15.20;3.97;;;4.00;99.90;;;;;;5099082;28;20413;-64
2023/01/31 02:22:37;;;;;;;11.65;3.45;;;4.00;99.90;;;;;;5099501;28;20755;-63
2023/01/31 02:25:39;;;;;;;10.95;2.88;;;4.00;99.90;;;;;;5098646;28;20474;-63
2023/01/31 02:28:42;;;;;;;12.47;2.80;;;4.00;99.90;;;;;;5098716;28;20535;-64
2023/01/31 02:31:46;;;;;;;14.27;3.10;;;3.90;99.90;;;;;;5098392;28;20903;-63
2023/01/31 02:34:22;;;;;;;9.73;3.10;;;3.80;99.90;;;;;;5098364;28;20414;-64
2023/01/31 02:37:01;;;;;;;20.40;3.77;;;3.80;99.90;;;;;;5100127;28;20436;-65
2023/01/31 02:39:34;;;;;;;13.68;3.42;;;3.80;99.90;;;;;;5099811;28;20889;-64
2023/01/31 02:42:10;;;;;;;12.60;3.10;;;3.70;99.90;;;;;;5096541;28;20410;-63
2023/01/31 02:44:59;;;;;;;11.15;2.80;;;3.70;99.90;;;;;;5096216;28;20414;-64
2023/01/31 02:47:33;;;;;;;12.18;3.03;;;3.70;99.90;;;;;;5096557;28;20402;-63
2023/01/31 02:50:09;;;;;;;15.85;3.20;;;3.70;99.90;;;;;;5095567;28;20429;-64
2023/01/31 02:52:45;;;;;;;14.75;3.85;;;3.70;99.90;;;;;;5095627;28;20402;-63
2023/01/31 02:58:05;;;;;;;10.60;3.07;;;3.80;99.90;;;;;;5094493;28;20835;-63
2023/01/31 03:00:34;;;;;;;20.80;4.40;;;3.80;99.90;;;;;;5094422;28;20428;-62
2023/01/31 03:03:03;;;;;;;14.38;3.35;;;3.90;99.90;;;;;;5095307;28;20434;-62
2023/01/31 03:05:31;;;;;;;16.00;4.20;;;3.90;99.90;;;;;;5094448;28;20409;-63
2023/01/31 03:08:01;;;;;;;10.95;3.72;;;3.90;99.90;;;;;;5093630;28;20410;-63
2023/01/31 03:10:45;;;;;;;26.83;4.75;;;3.90;99.90;;;;;;5093822;28;20755;-63
2023/01/31 03:13:26;;;;;;;14.50;3.65;;;3.90;99.90;;;;;;5094190;28;20497;-62
2023/01/31 03:18:59;;;;;;;18.90;3.67;;;3.90;99.90;;;;;;5093789;28;20424;-63
2023/01/31 03:21:31;;;;;;;16.40;3.40;;;3.90;99.90;;;;;;5094754;28;20777;-63
2023/01/31 03:23:58;;;;;;;12.82;3.25;;;3.90;99.90;;;;;;5094794;28;20421;-64
2023/01/31 03:26:27;;;;;;;16.60;3.50;;;3.90;99.90;;;;;;5093974;28;20406;-64
2023/01/31 03:28:57;;;;;;;14.93;3.08;;;3.90;99.90;;;;;;5094913;28;20417;-64
2023/01/31 03:31:27;;;;;;;14.30;3.55;;;3.90;99.90;;;;;;5093958;28;20414;-63
2023/01/31 03:33:57;;;;;;;12.90;3.38;;;3.90;99.90;;;;;;5094157;28;20414;-63
2023/01/31 03:36:36;;;;;;;12.63;3.15;;;3.90;99.90;;;;;;5093846;28;20490;-64
2023/01/31 03:39:13;;;;;;;14.27;2.90;;;3.80;99.90;;;;;;5093349;28;20445;-64
2023/01/31 03:41:50;;;;;;;12.38;2.90;;;3.80;99.90;;;;;;5092691;28;20462;-64
2023/01/31 03:44:24;;;;;;;19.75;3.00;;;3.70;99.90;;;;;;5093993;28;20405;-64
2023/01/31 03:46:55;;;;;;;13.30;3.28;;;3.70;99.90;;;;;;5096091;28;20398;-64
2023/01/31 03:49:25;;;;;;;12.70;3.20;;;3.60;99.90;;;;;;5097136;28;20418;-65
2023/01/31 03:52:00;;;;;;;19.52;3.70;;;3.60;99.90;;;;;;5098631;28;20420;-63
2023/01/31 03:54:34;;;;;;;10.57;2.88;;;3.60;99.90;;;;;;5093790;28;20429;-64
2023/01/31 03:57:05;;;;;;;18.08;3.40;;;3.50;99.90;;;;;;5093540;28;20429;-63
2023/01/31 03:59:36;;;;;;;16.80;3.30;;;3.50;99.90;;;;;;5096461;28;20448;-64
2023/01/31 04:02:07;;;;;;;15.77;2.90;;;3.50;99.90;;;;;;5100932;28;20417;-65
2023/01/31 04:04:39;;;;;;;11.25;2.85;;;3.50;99.90;;;;;;5098625;28;20410;-63
2023/01/31 04:07:07;;;;;;;19.20;3.70;;;3.50;99.90;;;;;;5096634;28;20413;-63
2023/01/31 04:11:08;;;;;;;16.38;3.50;;;3.40;99.90;;;;;;5091879;28;20370;-63
2023/01/31 04:13:35;;;;;;;16.95;3.22;;;3.40;99.90;;;;;;5090324;28;20443;-63
2023/01/31 04:16:03;;;;;;;18.60;3.30;;;3.40;99.90;;;;;;5090484;28;20820;-63
2023/01/31 04:18:29;;;;;;;18.25;3.70;;;3.40;99.90;;;;;;5091710;28;20418;-63
2023/01/31 04:20:56;;;;;;;14.60;3.60;;;3.40;99.90;;;;;;5090215;28;20407;-64
2023/01/31 04:23:25;;;;;;;11.27;2.80;;;3.40;99.90;;;;;;5091543;28;20418;-64
2023/01/31 04:25:53;;;;;;;13.73;3.00;;;3.40;99.90;;;;;;5090236;28;20460;-64
2023/01/31 04:28:21;;;;;;;11.98;2.70;;;3.40;99.90;;;;;;5092427;28;20411;-64
2023/01/31 04:30:52;;;;;;;14.93;3.20;;;3.40;99.90;;;;;;5098954;28;20429;-62
2023/01/31 04:33:19;;;;;;;15.55;2.97;;;3.40;99.90;;;;;;5092591;28;20410;-63
2023/01/31 04:35:46;;;;;;;17.58;3.33;;;3.40;99.90;;;;;;5089727;28;20411;-64
2023/01/31 04:38:12;;;;;;;14.30;3.13;;;3.40;99.90;;;;;;5090381;28;20433;-63
2023/01/31 04:40:39;;;;;;;11.82;2.70;;;3.50;99.90;;;;;;5089936;28;20409;-63
2023/01/31 04:43:06;;;;;;;14.20;3.15;;;3.50;99.90;;;;;;5089429;28;20903;-63
2023/01/31 04:45:34;;;;;;;18.03;2.93;;;3.60;99.90;;;;;;5089812;28;20508;-61
2023/01/31 04:48:01;;;;;;;15.10;2.80;;;3.60;99.90;;;;;;5089109;28;20415;-63
2023/01/31 04:50:28;;;;;;;12.73;3.30;;;3.60;99.90;;;;;;5088929;28;20427;-64
2023/01/31 04:52:54;;;;;;;10.98;2.40;;;3.70;99.90;;;;;;5089321;28;20421;-63
2023/01/31 04:55:22;;;;;;;13.75;3.10;;;3.70;99.90;;;;;;5089623;28;20410;-63
2023/01/31 04:57:49;;;;;;;13.50;2.78;;;3.70;99.90;;;;;;5089825;28;20411;-64
2023/01/31 05:00:16;;;;;;;12.85;3.00;;;3.70;99.90;;;;;;5089691;28;20418;-62
2023/01/31 05:02:44;;;;;;;15.50;2.50;;;3.70;99.90;;;;;;5089390;28;20415;-63
2023/01/31 05:05:12;;;;;;;11.73;3.10;;;3.70;99.90;;;;;;5089852;28;20446;-64
2023/01/31 05:07:39;;;;;;;15.02;3.13;;;3.80;99.90;;;;;;5089657;28;20879;-63
2023/01/31 05:10:07;;;;;;;15.20;3.72;;;3.80;99.90;;;;;;5090035;28;20430;-63
2023/01/31 05:12:33;;;;;;;10.53;2.80;;;3.80;99.90;;;;;;5089588;28;20419;-63
2023/01/31 05:15:00;;;;;;;10.90;2.90;;;3.80;99.90;;;;;;5089725;28;20414;-63
2023/01/31 05:17:28;;;;;;;11.23;2.67;;;3.80;99.90;;;;;;5089409;28;20835;-63
2023/01/31 05:19:57;;;;;;;12.07;3.78;;;3.80;99.90;;;;;;5089815;28;20429;-64
2023/01/31 05:22:23;;;;;;;14.32;3.20;;;3.80;99.90;;;;;;5076239;28;20494;-63
2023/01/31 05:24:51;;;;;;;12.65;2.83;;;3.80;99.90;;;;;;5076069;28;20415;-63
2023/01/31 05:27:19;;;;;;;11.83;3.00;;;3.90;99.90;;;;;;5075252;28;20494;-62
2023/01/31 05:29:46;;;;;;;10.52;3.00;;;3.90;99.90;;;;;;5074160;28;20433;-64
2023/01/31 05:32:13;;;;;;;11.05;2.72;;;3.90;99.90;;;;;;5065350;28;20420;-64
2023/01/31 05:34:40;;;;;;;13.88;3.13;;;3.90;99.90;;;;;;5076100;28;20419;-64
2023/01/31 05:37:09;;;;;;;10.63;2.30;;;3.90;99.90;;;;;;5065081;28;20435;-62
2023/01/31 05:39:36;;;;;;;12.02;2.90;;;3.90;99.90;;;;;;5071051;28;20498;-62
2023/01/31 05:42:03;;;;;;;10.75;2.67;;;3.90;99.90;;;;;;5075442;28;20443;-64
2023/01/31 05:44:31;;;;;;;11.48;3.00;;;4.00;99.90;;;;;;5067125;28;20429;-63
2023/01/31 05:46:59;;;;;;;10.60;2.90;;;4.00;99.90;;;;;;5054978;28;20413;-63
2023/01/31 05:49:26;;;;;;;10.35;2.50;;;4.00;99.90;;;;;;5067129;28;20980;-63
2023/01/31 05:51:53;;;;;;;9.88;3.03;;;4.00;99.90;;;;;;5065035;28;20441;-64
2023/01/31 05:54:21;;;;;;;13.00;2.90;;;4.10;99.90;;;;;;5063791;28;20453;-64
2023/01/31 05:56:48;;;;;;;13.65;3.83;;;4.10;99.90;;;;;;5061343;28;20429;-66
2023/01/31 05:59:14;;;;;;;13.43;3.17;;;4.10;99.90;;;;;;5054502;28;20950;-64
2023/01/31 06:01:41;;;;;;;11.85;2.95;;;4.20;99.90;;;;;;5053761;28;20842;-63
2023/01/31 06:04:09;;;;;;;14.32;3.03;;;4.20;99.90;;;;;;5053998;28;20916;-63
2023/01/31 06:06:36;;;;;;;15.83;2.93;;;4.20;99.90;;;;;;5053937;28;20424;-68
2023/01/31 06:09:03;;;;;;;10.50;2.90;;;4.20;99.90;;;;;;5054305;28;20417;-62
2023/01/31 06:11:31;;;;;;;11.18;3.05;;;4.30;99.90;;;;;;5053965;28;20434;-64
2023/01/31 06:13:58;;;;;;;9.98;2.80;;;4.20;99.90;;;;;;5053961;28;20912;-63
2023/01/31 06:16:25;;;;;;;8.23;2.80;;;4.30;99.90;;;;;;5054232;28;20421;-62
2023/01/31 06:18:54;;;;;;;11.57;3.30;;;4.30;99.90;;;;;;5070803;28;20438;-63
2023/01/31 06:21:21;;;;;;;10.38;3.50;;;4.30;99.90;;;;;;5074476;28;20414;-65
2023/01/31 06:23:47;;;;;;;12.05;3.35;;;4.30;99.90;;;;;;5057810;28;20436;-64
2023/01/31 06:26:14;;;;;;;12.93;2.90;;;4.30;99.90;;;;;;5054224;28;20413;-64
2023/01/31 06:28:42;;;;;;;10.50;2.97;;;4.30;99.90;;;;;;5055494;28;20884;-65
2023/01/31 06:31:10;;;;;;;11.87;2.80;;;4.40;99.90;;;;;;5062810;28;20471;-65
2023/01/31 06:33:36;;;;;;;13.52;3.22;;;4.40;99.90;;;;;;5078551;28;20416;-64
2023/01/31 06:36:04;;;;;;;10.13;3.30;;;4.40;99.90;;;;;;5084277;28;20479;-65
2023/01/31 06:38:31;;;;;;;8.15;3.05;;;4.40;99.90;;;;;;5081662;28;20434;-64
2023/01/31 06:40:58;;;;;;;16.15;3.80;;;4.40;99.90;;;;;;5083833;28;20492;-69
2023/01/31 06:43:25;;;;;;;9.00;3.20;;;4.40;99.90;;;;;;5084075;28;20411;-64
2023/01/31 06:45:53;;;;;;;12.45;3.80;;;4.40;99.90;;;;;;5079353;28;20412;-65
2023/01/31 06:48:20;;;;;;;15.65;4.00;;;4.50;99.90;;;;;;5075124;28;20502;-65
2023/01/31 06:50:47;;;;;;;10.50;3.27;;;4.50;99.90;;;;;;5075740;28;20434;-64
2023/01/31 06:53:14;;;;;;;12.60;3.60;;;4.50;99.90;;;;;;5067625;28;20429;-64
2023/01/31 06:55:40;;;;;;;13.83;3.60;;;4.50;99.90;;;;;;5055792;28;20409;-65
2023/01/31 06:58:07;;;;;;;9.18;3.35;;;4.50;99.90;;;;;;5064078;28;20420;-65
2023/01/31 07:00:34;;;;;;;15.52;4.28;;;4.50;99.90;;;;;;5058613;28;20405;-63
2023/01/31 07:03:02;;;;;;;14.13;4.00;;;4.60;99.90;;;;;;5055337;28;20423;-64
2023/01/31 07:05:29;;;;;;;9.35;3.35;;;4.60;99.90;;;;;;5055307;28;20409;-64
2023/01/31 07:07:55;;;;;;;11.20;3.70;;;4.60;99.90;;;;;;5054710;28;20450;-63
2023/01/31 07:10:22;;;;;;;13.30;3.80;;;4.60;99.90;;;;;;5054030;28;20437;-64
2023/01/31 07:12:49;;;;;;;13.45;4.40;;;4.70;99.90;;;;;;5053664;28;20437;-64
2023/01/31 07:15:16;;;;;;;11.83;3.80;;;4.70;99.90;;;;;;5053823;28;20502;-63
2023/01/31 07:17:43;;;;;;;15.70;4.95;;;4.70;99.90;;;;;;5054056;28;20419;-64
2023/01/31 07:20:12;;;;;;;11.35;4.38;;;4.70;99.90;;;;;;5054066;28;20475;-64
2023/01/31 07:22:39;;;;;;;13.25;4.60;;;4.70;99.90;;;;;;5053679;28;20416;-64
2023/01/31 07:25:06;;;;;;;13.80;5.20;;;4.80;99.90;;;;;;5053661;28;20409;-65
2023/01/31 07:27:33;;;;;;;12.95;4.93;;;4.90;99.90;;;;;;5053612;28;20413;-64
2023/01/31 07:30:00;;;;;;;13.00;5.18;;;4.90;99.90;;;;;;5054033;28;20433;-64
2023/01/31 07:32:30;;;;;;;16.50;5.47;;;4.90;99.90;;;;;;5054346;28;20497;-65
2023/01/31 07:34:56;;;;;;;15.37;5.53;;;4.90;99.90;;;;;;5054085;28;20944;-63
2023/01/31 07:37:25;;;;;;;14.63;5.57;;;4.90;99.90;;;;;;5056403;28;20812;-65
2023/01/31 07:39:51;;;;;;;13.20;5.17;;;4.90;99.90;;;;;;5066638;28;20413;-64
2023/01/31 07:42:18;;;;;;;13.55;5.70;;;4.90;99.90;;;;;;5061667;28;20409;-64
2023/01/31 07:44:45;;;;;;;19.13;6.30;;;4.90;99.90;;;;;;5067308;28;20461;-63
2023/01/31 07:47:12;;;;;;;16.92;6.10;;;5.00;99.90;;;;;;5063039;28;20413;-64
2023/01/31 07:49:38;;;;;;;18.25;5.93;;;5.00;99.90;;;;;;5064279;28;20474;-64
2023/01/31 07:52:05;;;;;;;17.35;6.40;;;5.00;99.90;;;;;;5062536;28;20425;-65
2023/01/31 07:54:34;;;;;;;16.45;6.30;;;5.00;99.90;;;;;;5060330;28;20881;-65
2023/01/31 07:57:01;;;;;;;17.60;6.43;;;5.10;99.90;;;;;;5059641;28;20420;-62
2023/01/31 07:59:28;;;;;;;16.23;6.67;;;5.10;99.90;;;;;;5058873;28;20453;-64
2023/01/31 08:04:39;;;;;;;16.53;6.63;;;5.30;99.90;;;;;;5055669;28;20455;-65
2023/01/31 08:07:06;;;;;;;17.23;6.43;;;5.30;99.90;;;;;;5055271;28;20413;-65
2023/01/31 08:09:32;;;;;;;15.02;6.28;;;5.30;99.90;;;;;;5053929;28;20440;-65
2023/01/31 08:12:01;;;;;;;14.83;6.27;;;5.40;99.90;;;;;;5053267;28;20432;-64
2023/01/31 08:14:27;;;;;;;15.23;6.15;;;5.40;99.90;;;;;;5061140;28;20417;-64
2023/01/31 08:16:55;;;;;;;15.23;6.47;;;5.50;99.90;;;;;;5055764;28;20421;-63
2023/01/31 08:19:22;;;;;;;14.95;6.20;;;5.60;99.90;;;;;;5054679;28;20424;-64
2023/01/31 08:21:49;;;;;;;18.80;6.50;;;5.60;99.90;;;;;;5053664;28;20432;-64
2023/01/31 08:24:16;;;;;;;12.73;6.40;;;5.70;99.90;;;;;;5054057;28;20412;-62
2023/01/31 08:26:43;;;;;;;12.50;5.43;;;5.80;99.90;;;;;;5053176;28;20729;-63
2023/01/31 08:29:11;;;;;;;14.97;5.60;;;6.00;99.90;;;;;;5053693;28;20498;-64
2023/01/31 08:31:40;;;;;;;16.85;6.22;;;6.00;99.90;;;;;;5054485;28;20429;-63
2023/01/31 08:34:07;;;;;;;15.55;5.63;;;6.00;99.90;;;;;;5060444;28;20413;-64
2023/01/31 08:36:35;;;;;;;13.98;6.05;;;6.00;99.90;;;;;;5062813;28;20415;-64
2023/01/31 08:39:02;;;;;;;13.93;6.20;;;5.90;99.90;;;;;;5061263;28;20471;-64
2023/01/31 08:41:32;;;;;;;15.82;5.82;;;5.90;99.90;;;;;;5061444;28;20518;-64
2023/01/31 08:43:59;;;;;;;22.58;6.65;;;5.90;99.90;;;;;;5060005;28;20510;-66
2023/01/31 08:46:30;;;;;;;14.57;5.70;;;6.00;99.90;;;;;;5057919;28;20452;-64
2023/01/31 08:48:56;;;;;;;17.58;7.00;;;6.00;99.90;;;;;;5058404;28;20431;-63
2023/01/31 08:51:23;;;;;;;13.30;6.28;;;6.10;99.90;;;;;;5055521;28;20421;-64
2023/01/31 08:53:50;;;;;;;16.48;6.90;;;6.10;99.90;;;;;;5055873;28;20431;-64
2023/01/31 08:56:20;;;;;;;16.98;6.80;;;6.20;99.90;;;;;;5058484;28;20413;-64
2023/01/31 08:58:47;;;;;;;17.65;6.65;;;6.20;99.90;;;;;;5067831;28;20909;-64
2023/01/31 09:01:15;;;;;;;16.77;6.20;;;6.30;99.90;;;;;;5061250;28;20415;-64
2023/01/31 09:03:44;;;;;;;15.23;6.13;;;6.30;99.90;;;;;;5064295;28;20409;-63
2023/01/31 09:06:14;;;;;;;14.03;6.63;;;6.40;99.90;;;;;;5065910;28;20424;-64
2023/01/31 09:08:41;;;;;;;14.27;6.28;;;6.40;99.90;;;;;;5063759;28;20508;-64
2023/01/31 09:11:07;;;;;;;21.67;7.00;;;6.50;99.90;;;;;;5057034;28;20433;-64
2023/01/31 09:13:35;;;;;;;15.95;6.40;;;6.50;99.90;;;;;;5057777;28;20427;-64
2023/01/31 09:16:04;;;;;;;14.60;6.10;;;6.50;99.90;;;;;;5061708;28;20419;-63
2023/01/31 09:18:33;;;;;;;13.73;6.25;;;6.40;99.90;;;;;;5059264;28;20405;-64
2023/01/31 09:21:05;;;;;;;14.55;6.18;;;6.40;99.90;;;;;;5059771;28;20413;-63
2023/01/31 09:23:32;;;;;;;15.07;5.80;;;6.40;99.90;;;;;;5059946;28;20477;-64
2023/01/31 09:25:59;;;;;;;14.63;6.25;;;6.30;99.90;;;;;;5060041;28;20894;-64
2023/01/31 09:28:26;;;;;;;13.35;5.82;;;6.30;99.90;;;;;;5063866;28;20417;-64
2023/01/31 09:30:53;;;;;;;10.65;5.90;;;6.20;99.90;;;;;;5062009;28;20433;-65
2023/01/31 09:33:20;;;;;;;15.82;6.53;;;6.20;99.90;;;;;;5061992;28;20420;-65
2023/01/31 09:35:56;;;;;;;14.10;7.30;;;6.10;99.90;;;;;;5058933;28;20765;-64
2023/01/31 09:38:25;;;;;;;15.88;7.28;;;6.00;99.90;;;;;;5057249;28;20409;-63
2023/01/31 09:40:53;;;;;;;13.63;7.60;;;5.90;99.90;;;;;;5056286;28;20425;-64
2023/01/31 09:43:23;;;;;;;14.18;7.95;;;5.70;99.90;;;;;;5056255;28;20413;-64
2023/01/31 09:45:54;;;;;;;12.38;7.53;;;5.50;99.90;;;;;;5057250;28;20405;-65
2023/01/31 09:48:27;;;;;;;15.37;8.17;;;5.40;99.90;;;;;;5056498;28;20543;-64
2023/01/31 09:50:56;;;;;;;15.70;8.40;;;5.30;99.90;;;;;;5055976;28;20792;-65
2023/01/31 09:53:31;;;;;;;17.55;8.73;;;5.20;99.90;;;;;;5056450;28;20421;-64
2023/01/31 09:56:13;;;;;;;17.85;9.20;;;5.10;99.90;;;;;;5057281;28;20422;-63
2023/01/31 09:58:50;;;;;;;14.40;9.05;;;5.10;99.90;;;;;;5057288;28;20406;-64
2023/01/31 10:01:23;;;;;;;15.50;9.20;;;5.10;99.90;;;;;;5056455;28;20500;-64
2023/01/31 10:04:22;;;;;;;19.87;9.63;;;5.10;99.90;;;;;;5057449;28;20410;-64
2023/01/31 10:06:54;;;;;;;18.23;10.03;;;5.10;99.90;;;;;;5051881;28;20585;-64
2023/01/31 10:09:28;;;;;;;17.45;8.90;;;5.10;99.90;;;;;;5056211;28;20441;-65
2023/01/31 10:11:59;;;;;;;21.00;9.90;;;5.10;99.90;;;;;;5057020;28;20531;-63
2023/01/31 10:14:33;;;;;;;16.48;8.73;;;5.10;99.90;;;;;;5055543;28;20872;-63
2023/01/31 10:17:06;;;;;;;14.65;8.60;;;5.20;99.90;;;;;;5055433;28;20417;-64
2023/01/31 10:19:39;;;;;;;13.20;7.82;;;5.20;99.90;;;;;;5055323;28;20405;-64
2023/01/31 10:22:09;;;;;;;11.88;7.53;;;5.20;99.90;;;;;;5056984;28;20481;-63
2023/01/31 10:24:41;;;;;;;13.60;7.53;;;5.20;99.90;;;;;;5056735;28;20425;-65
2023/01/31 10:27:16;;;;;;;12.07;6.63;;;5.30;99.90;;;;;;5055718;28;20505;-63
2023/01/31 10:29:47;;;;;;;10.63;7.05;;;5.30;99.90;;;;;;5055487;28;20405;-64
2023/01/31 10:32:21;;;;;;;9.40;6.25;;;5.30;99.90;;;;;;5055291;28;20782;-65
2023/01/31 10:34:53;;;;;;;10.68;6.70;;;5.40;99.90;;;;;;5055658;28;20417;-63
2023/01/31 10:37:30;;;;;;;12.80;6.97;;;5.40;99.90;;;;;;5055367;28;20413;-63
2023/01/31 10:40:03;;;;;;;12.60;7.15;;;5.40;99.90;;;;;;5055068;28;20417;-64
2023/01/31 10:42:32;;;;;;;11.27;6.68;;;5.50;99.90;;;;;;5054614;28;20475;-64
2023/01/31 10:45:05;;;;;;;11.88;6.60;;;5.50;99.90;;;;;;5054634;28;20760;-63
2023/01/31 10:47:34;;;;;;;9.70;6.20;;;5.60;99.90;;;;;;5054271;28;20414;-63
2023/01/31 10:50:04;;;;;;;13.88;7.10;;;5.60;99.90;;;;;;5054381;28;20952;-62
2023/01/31 10:52:45;;;;;;;11.43;7.00;;;5.60;99.90;;;;;;5054740;28;20425;-64
2023/01/31 10:55:34;;;;;;;9.35;6.20;;;5.60;99.90;;;;;;5054863;28;20413;-64
2023/01/31 10:58:01;;;;;;;10.77;6.70;;;5.70;99.90;;;;;;5053896;28;20449;-64
2023/01/31 11:00:32;;;;;;;14.90;7.13;;;5.70;99.90;;;;;;5054389;28;20457;-65
2023/01/31 11:02:59;;;;;;;12.10;6.65;;;5.70;99.90;;;;;;5054152;28;20413;-64
2023/01/31 11:05:29;;;;;;;12.63;6.97;;;5.70;99.90;;;;;;5055005;28;20419;-64
2023/01/31 11:07:57;;;;;;;13.98;7.15;;;5.70;99.90;;;;;;5053461;28;20535;-65
2023/01/31 11:10:27;;;;;;;12.30;6.93;;;5.80;99.90;;;;;;5053089;28;20928;-65
2023/01/31 11:12:56;;;;;;;15.15;7.50;;;5.80;99.90;;;;;;5053604;28;20436;-64
2023/01/31 11:15:27;;;;;;;13.02;7.00;;;5.90;99.90;;;;;;5055378;28;20413;-64
2023/01/31 11:17:57;;;;;;;17.02;7.45;;;5.90;99.90;;;;;;5054265;28;20449;-64
2023/01/31 11:20:29;;;;;;;14.95;7.15;;;6.00;99.90;;;;;;5054250;28;20893;-64
2023/01/31 11:22:57;;;;;;;13.27;6.90;;;6.10;99.90;;;;;;5053635;28;20413;-65
2023/01/31 11:25:28;;;;;;;14.90;7.40;;;6.10;99.90;;;;;;5053944;28;20491;-64
2023/01/31 11:27:58;;;;;;;13.87;7.60;;;6.10;99.90;;;;;;5065372;28;20449;-65
2023/01/31 11:30:29;;;;;;;11.10;7.60;;;6.20;99.90;;;;;;5055260;28;20465;-65
2023/01/31 11:32:56;;;;;;;14.15;7.55;;;6.20;99.90;;;;;;5054306;28;20516;-64
2023/01/31 11:35:26;;;;;;;11.68;7.28;;;6.20;99.90;;;;;;5054837;28;20428;-64
2023/01/31 11:37:55;;;;;;;12.10;7.30;;;6.20;99.90;;;;;;5055383;28;20421;-65
2023/01/31 11:40:30;;;;;;;16.17;8.38;;;6.10;99.90;;;;;;5055533;28;20417;-65
2023/01/31 11:42:58;;;;;;;13.73;8.52;;;6.10;99.90;;;;;;5054459;28;20410;-63
2023/01/31 11:45:28;;;;;;;10.95;7.35;;;6.10;99.90;;;;;;5059797;28;20431;-65
2023/01/31 11:47:57;;;;;;;13.95;9.15;;;6.10;99.90;;;;;;5075224;28;20419;-66
2023/01/31 11:50:31;;;;;;;17.10;9.30;;;6.10;99.90;;;;;;5075182;28;20419;-64
2023/01/31 11:53:00;;;;;;;14.70;9.27;;;6.10;99.90;;;;;;5074884;28;20427;-65
2023/01/31 11:55:35;;;;;;;13.82;9.85;;;6.10;99.90;;;;;;5074086;28;20407;-66
2023/01/31 11:58:04;;;;;;;13.48;9.73;;;6.00;99.90;;;;;;5073428;28;20411;-65
2023/01/31 12:00:33;;;;;;;17.20;10.30;;;6.00;99.90;;;;;;5073431;28;20417;-63
2023/01/31 12:03:03;;;;;;;13.80;9.10;;;6.00;99.90;;;;;;5081828;28;20502;-64
2023/01/31 12:05:36;;;;;;;17.27;10.30;;;6.00;99.90;;;;;;5082966;28;20419;-65
2023/01/31 12:08:04;;;;;;;17.17;9.70;;;5.90;99.90;;;;;;5076564;28;20415;-64
2023/01/31 12:10:35;;;;;;;16.15;9.77;;;6.00;99.90;;;;;;5073806;28;20748;-65
2023/01/31 12:13:11;;;;;;;16.58;9.68;;;6.00;99.90;;;;;;5073270;28;20424;-65
2023/01/31 12:15:51;;;;;;;15.52;9.73;;;6.10;99.90;;;;;;5073296;28;20426;-65
2023/01/31 12:18:26;;;;;;;16.45;9.85;;;6.10;99.90;;;;;;5072694;28;20422;-64
2023/01/31 12:21:02;;;;;;;15.95;8.43;;;6.20;99.90;;;;;;5073235;28;20419;-66
2023/01/31 12:23:38;;;;;;;13.88;8.80;;;6.20;99.90;;;;;;5074317;28;20415;-65
2023/01/31 12:26:13;;;;;;;15.57;9.07;;;6.20;99.90;;;;;;5074690;28;20410;-65
2023/01/31 12:28:58;;;;;;;15.68;9.90;;;6.20;99.90;;;;;;5074145;28;20422;-65
2023/01/31 12:31:48;;;;;;;13.57;9.30;;;6.20;99.90;;;;;;5074967;28;20784;-64
2023/01/31 12:34:36;;;;;;;14.45;9.82;;;6.10;99.90;;;;;;5077971;28;20878;-65
2023/01/31 12:37:16;;;;;;;18.80;9.60;;;6.10;99.90;;;;;;5079152;28;20430;-65
2023/01/31 12:40:00;;;;;;;15.48;8.95;;;6.10;99.90;;;;;;5078372;28;20494;-65
2023/01/31 12:42:45;;;;;;;15.13;9.10;;;6.10;99.90;;;;;;5077375;28;20415;-65
2023/01/31 12:45:39;;;;;;;11.63;9.00;;;6.00;99.90;;;;;;5074427;28;20915;-64
2023/01/31 12:48:24;;;;;;;12.18;8.60;;;6.00;99.90;;;;;;5064988;28;20486;-64
2023/01/31 12:50:58;;;;;;;11.77;9.05;;;6.10;99.90;;;;;;5058640;28;20409;-64
2023/01/31 12:53:47;;;;;;;15.20;10.33;;;6.10;99.90;;;;;;5057946;28;20432;-64
2023/01/31 12:56:55;;;;;;;17.05;10.10;;;6.10;99.90;;;;;;5060750;28;20406;-64
2023/01/31 12:59:43;;;;;;;15.23;11.93;;;6.00;99.90;;;;;;5058868;28;20452;-64
2023/01/31 13:02:25;;;;;;;20.08;11.55;;;5.90;99.90;;;;;;5064507;28;20525;-63
2023/01/31 13:04:55;;;;;;;17.73;12.65;;;5.80;99.90;;;;;;5064469;28;20443;-64
2023/01/31 13:07:28;;;;;;;18.42;13.50;;;5.80;99.90;;;;;;5064051;28;20409;-64
2023/01/31 13:09:59;;;;;;;18.65;13.82;;;5.70;99.90;;;;;;5063775;28;20437;-64
2023/01/31 13:12:30;;;;;;;21.90;12.98;;;5.60;99.90;;;;;;5060250;28;20425;-64
2023/01/31 13:15:03;;;;;;;18.33;14.73;;;5.50;99.90;;;;;;5058921;28;20497;-64